Data for 06/18/2007

Time Sea-Level Adjusted Pressure Absolute Pressure Temperature Relative Humidity Dew Point   
(mb) (inHg) (mb) (inHg) (C) (F) (%) (C) (F)
00:05 1017 30.03 846 24.98 11 51.7 51 1.4 34.5
00:10 1017 30.03 846 24.98 10.9 51.6 52 1.5 34.8
00:15 1017 30.03 846 24.98 10.9 51.5 53 1.6 34.9
00:20 1017 30.03 846 24.98 10.8 51.5 53 1.8 35.2
00:25 1017 30.03 846 24.98 10.8 51.4 54 1.9 35.4
00:30 1017 30.03 846 24.98 10.6 51.1 56 2.2 36
00:35 1017 30.03 846 24.98 10.5 50.8 57 2.3 36.2
00:40 1017 30.03 846 24.98 10.3 50.5 57 2.2 35.9
00:45 1017 30.03 846 24.98 10.2 50.3 57 2 35.6
00:50 1017 30.03 846 24.98 10.1 50.2 57 1.9 35.4
00:55 1017 30.03 846 24.98 10.1 50.1 56 1.8 35.3
01:00 1017 30.03 846 24.98 10 50 56 1.8 35.2
01:05 1017 30.03 846 24.98 9.9 49.8 57 1.8 35.2
01:10 1017 30.03 846 24.98 9.9 49.9 56 1.6 34.9
01:15 1017 30.03 846 24.98 9.9 49.8 57 1.8 35.2
01:20 1017 30.03 846 24.98 9.8 49.7 57 1.8 35.2
01:25 1017 30.03 846 24.98 9.7 49.5 58 1.9 35.4
01:30 1017 30.03 846 24.98 9.7 49.4 58 1.9 35.4
01:35 1017 30.03 846 24.98 9.6 49.2 58 1.8 35.3
01:40 1017 30.03 846 24.98 9.6 49.3 58 1.9 35.4
01:45 1017 30.03 846 24.98 9.7 49.4 58 1.8 35.2
01:50 1017 30.03 846 24.98 9.8 49.6 57 1.7 35.1
01:55 1017 30.03 846 24.98 9.7 49.5 58 1.9 35.4
02:00 1017 30.03 846 24.98 9.7 49.5 57 1.6 35
02:05 1017 30.03 846 24.98 9.8 49.7 56 1.4 34.5
02:10 1017 30.03 846 24.98 10 49.9 55 1.3 34.4
02:15 1017 30.03 846 24.98 9.8 49.7 59 2.3 36.2
02:20 1017 30.03 846 24.98 9.1 48.4 62 2.3 36.2
02:25 1017 30.03 846 24.98 9.1 48.5 59 1.6 34.9
02:30 1017 30.03 846 24.98 9.4 48.9 59 1.9 35.5
02:35 1017 30.03 846 24.98 9.4 49 59 1.8 35.2
02:40 1017 30.03 846 24.98 9.4 49 60 2.1 35.7
02:45 1017 30.03 846 24.98 9.4 48.9 60 2 35.5
02:50 1017 30.03 846 24.98 9.5 49.1 58 1.6 34.9
02:55 1017 30.03 846 24.98 9.6 49.2 57 1.6 34.9
03:00 1017 30.03 847 25.01 9.6 49.3 58 1.9 35.3
03:05 1017 30.03 847 25.01 9.6 49.2 59 1.9 35.5
03:10 1017 30.03 847 25.01 9.6 49.2 58 1.8 35.2
03:15 1017 30.03 847 25.01 9.6 49.4 58 1.8 35.2
03:20 1017 30.03 847 25.01 9.6 49.4 56 1.3 34.4
03:25 1017 30.03 847 25.01 9.8 49.7 55 1.4 34.4
03:30 1017 30.03 847 25.01 9.8 49.6 58 1.9 35.4
03:35 1017 30.03 847 25.01 9.5 49.2 59 2 35.6
03:40 1017 30.03 847 25.01 9.4 49 59 1.9 35.4
03:45 1017 30.03 847 25.01 9.4 49 58 1.6 34.8
03:50 1017 30.03 847 25.01 9.7 49.4 56 1.5 34.6
03:55 1017 30.03 847 25.01 9.7 49.5 58 1.8 35.2
04:00 1017 30.03 847 25.01 9.8 49.6 55 1.3 34.3
04:05 1017 30.03 847 25.01 9.8 49.6 57 1.6 35
04:10 1018 30.06 847 25.01 9.8 49.6 58 2 35.5
04:15 1017 30.03 847 25.01 9.6 49.4 59 2 35.5
04:20 1017 30.03 847 25.01 9.5 49.1 59 1.9 35.4
04:25 1017 30.03 847 25.01 9.5 49.1 59 1.9 35.4
04:30 1017 30.03 847 25.01 9.5 49 59 2 35.6
04:35 1017 30.03 847 25.01 9.4 48.9 60 2 35.6
04:40 1017 30.03 847 25.01 9.4 48.8 58 1.7 35
04:45 1017 30.03 847 25.01 9.3 48.8 60 2 35.5
04:50 1017 30.03 847 25.01 9.1 48.5 61 2 35.7
04:55 1017 30.03 847 25.01 9 48.2 61 1.8 35.2
05:00 1017 30.03 847 25.01 9.1 48.3 59 1.6 34.8
05:05 1017 30.03 847 25.01 9.3 48.8 58 1.5 34.7
05:10 1017 30.03 847 25.01 9.3 48.7 60 1.9 35.4
05:15 1017 30.03 847 25.01 9.1 48.5 60 1.8 35.2
05:20 1017 30.03 847 25.01 9.1 48.4 60 1.8 35.2
05:25 1017 30.03 847 25.01 9.3 48.7 60 1.8 35.3
05:30 1018 30.06 847 25.01 9.3 48.7 60 1.9 35.4
05:35 1018 30.06 847 25.01 9.3 48.7 61 2.1 35.8
05:40 1018 30.06 847 25.01 9.2 48.5 62 2.2 35.9
05:45 1018 30.06 847 25.01 9.1 48.3 61 2 35.6
05:50 1018 30.06 847 25.01 9.2 48.5 61 2.2 35.9
05:55 1018 30.06 847 25.01 9.3 48.7 61 2.2 35.9
06:00 1018 30.06 847 25.01 9.3 48.8 61 2.2 36
06:05 1018 30.06 847 25.01 9.5 49.1 59 2 35.7
06:10 1018 30.06 847 25.01 9.7 49.4 60 2.3 36.1
06:15 1018 30.06 847 25.01 9.6 49.3 60 2.3 36.1
06:20 1018 30.06 847 25.01 9.6 49.3 61 2.4 36.3
06:25 1018 30.06 847 25.01 9.5 49.1 61 2.4 36.4
06:30 1018 30.06 847 25.01 9.6 49.2 61 2.5 36.4
06:35 1018 30.06 847 25.01 9.5 49.1 62 2.6 36.7
06:40 1018 30.06 847 25.01 9.5 49.1 62 2.6 36.7
06:45 1018 30.06 847 25.01 9.5 49.1 61 2.5 36.5
06:50 1018 30.06 847 25.01 9.7 49.4 61 2.5 36.4
06:55 1018 30.06 847 25.01 9.8 49.7 59 2.2 36
07:00 1018 30.06 847 25.01 10 49.9 58 2.2 36
07:05 1018 30.06 847 25.01 10.1 50.1 58 2.3 36.1
07:10 1018 30.06 847 25.01 10.2 50.3 57 2.2 35.9
07:15 1018 30.06 847 25.01 10.3 50.5 57 2.2 35.9
07:20 1018 30.06 847 25.01 10.5 50.9 55 2 35.6
07:25 1018 30.06 847 25.01 10.6 51.1 55 2.1 35.7
07:30 1018 30.06 847 25.01 10.7 51.2 54 1.9 35.4
07:35 1018 30.06 847 25.01 11.1 51.9 52 1.7 35.1
07:40 1018 30.06 847 25.01 11.6 52.9 51 1.7 35.1
07:45 1018 30.06 847 25.01 11.8 53.3 50 1.8 35.2
07:50 1018 30.06 847 25.01 11 51.8 52 1.7 35.1
07:55 1018 30.06 847 25.01 10.6 51 54 1.8 35.2
08:00 1018 30.06 847 25.01 10.8 51.4 54 1.8 35.3
08:05 1018 30.06 847 25.01 10.6 51.1 54 1.7 35.1
08:10 1018 30.06 847 25.01 10.9 51.7 53 1.8 35.2
08:15 1018 30.06 847 25.01 11.9 53.4 49 1.6 35
08:20 1018 30.06 847 25.01 12.2 53.9 49 1.9 35.3
08:25 1018 30.06 847 25.01 11.9 53.4 50 2 35.6
08:30 1018 30.06 847 25.01 12 53.6 49 1.8 35.2
08:35 1018 30.06 847 25.01 12.8 55.1 47 1.8 35.2
08:40 1018 30.06 847 25.01 13.6 56.4 45 2 35.6
08:45 1018 30.06 847 25.01 14 57.1 43 1.6 34.9
08:50 1018 30.06 847 25.01 14.1 57.4 42 1.6 34.9
08:55 1018 30.06 847 25.01 13.5 56.2 45 2 35.5
09:00 1018 30.06 847 25.01 12.8 55.1 46 1.4 34.6
09:05 1018 30.06 847 25.01 13.4 56.2 44 1.4 34.5
09:10 1018 30.06 847 25.01 13.3 55.9 42 0.6 33.1
09:15 1018 30.06 847 25.01 13.8 56.8 41 1 33.7
09:20 1018 30.06 847 25.01 14.7 58.4 39 1 33.9
09:25 1018 30.06 847 25.01 14.9 58.7 38 0.7 33.2
09:30 1018 30.06 847 25.01 15.1 59.1 36 0.1 32.3
09:35 1018 30.06 847 25.01 14.8 58.7 40 1.5 34.6
09:40 1018 30.06 847 25.01 14.9 58.8 39 1.3 34.3
09:45 1018 30.06 847 25.01 15.4 59.6 36 0.5 32.9
09:50 1018 30.06 847 25.01 15.5 59.8 37 0.8 33.4
09:55 1018 30.06 847 25.01 15.8 60.4 34 0.1 32.1
10:00 1018 30.06 847 25.01 15.8 60.4 35 0.4 32.7
10:05 1017 30.03 847 25.01 15.2 59.4 39 1.5 34.7
10:10 1017 30.03 847 25.01 15.3 59.5 39 1.6 34.9
10:15 1017 30.03 847 25.01 15.4 59.6 39 1.6 34.9
10:20 1017 30.03 847 25.01 15.5 59.9 39 1.7 35.1
10:25 1017 30.03 847 25.01 15.5 59.9 39 1.8 35.2
10:30 1017 30.03 846 24.98 15.2 59.4 39 1.3 34.4
10:35 1017 30.03 846 24.98 15.5 59.9 37 0.9 33.6
10:40 1017 30.03 846 24.98 15.9 60.7 38 1.9 35.4
10:45 1017 30.03 846 24.98 16.5 61.7 38 2.4 36.3
10:50 1017 30.03 846 24.98 16.3 61.3 40 2.6 36.7
10:55 1017 30.03 846 24.98 16.2 61.1 40 2.6 36.7
11:00 1017 30.03 846 24.98 16.3 61.3 35 1 33.8
11:05 1017 30.03 846 24.98 16.5 61.6 37 1.9 35.3
11:10 1017 30.03 846 24.98 16.2 61.2 37 1.7 35.1
11:15 1017 30.03 846 24.98 16.9 62.4 34 0.9 33.6
11:20 1017 30.03 846 24.98 17 62.6 36 2.1 35.7
11:25 1017 30.03 846 24.98 17.2 62.9 33 1 33.8
11:30 1017 30.03 846 24.98 17.4 63.3 32 0.7 33.3
11:35 1017 30.03 846 24.98 17.3 63.2 35 1.7 35.1
11:40 1017 30.03 846 24.98 17.1 62.8 36 2.2 35.9
11:45 1017 30.03 846 24.98 17.4 63.2 33 1.1 34
11:50 1017 30.03 846 24.98 17.5 63.5 34 1.6 34.8
11:55 1017 30.03 846 24.98 17.4 63.4 37 2.6 36.6
12:00 1017 30.03 846 24.98 17.3 63.1 36 2.2 36
12:05 1017 30.03 846 24.98 17.5 63.5 35 2.1 35.7
12:10 1017 30.03 846 24.98 17.2 62.9 35 1.9 35.4
12:15 1017 30.03 846 24.98 16.7 62.1 39 2.7 36.9
12:20 1017 30.03 846 24.98 17.2 62.9 35 1.8 35.3
12:25 1017 30.03 846 24.98 17.9 64.2 33 1.6 35
12:30 1017 30.03 846 24.98 18.2 64.7 34 2.2 35.9
12:35 1017 30.03 846 24.98 18 64.5 33 1.6 34.9
12:40 1017 30.03 846 24.98 17.8 64 34 1.9 35.4
12:45 1017 30.03 846 24.98 17.2 63 35 1.9 35.3
12:50 1017 30.03 846 24.98 16.5 61.8 35 1.3 34.3
12:55 1017 30.03 846 24.98 16.4 61.6 35 1.1 34
13:00 1017 30.03 846 24.98 18.2 64.8 32 1.5 34.7
13:05 1017 30.03 846 24.98 19 66.2 30 1.3 34.3
13:10 1016 30 846 24.98 19 66.1 32 2 35.5
13:15 1016 30 846 24.98 18.7 65.6 33 2.3 36.1
13:20 1016 30 846 24.98 18.2 64.7 33 1.6 34.9
13:25 1016 30 846 24.98 17.9 64.2 32 1.1 34
13:30 1016 30 846 24.98 17.7 63.8 33 1.2 34.1
13:35 1016 30 846 24.98 18.3 64.9 26 -1.5 29.2
13:40 1016 30 846 24.98 18.3 65 29 0 32
13:45 1016 30 846 24.98 18.5 65.3 27 -0.9 30.5
13:50 1016 30 846 24.98 18.4 65.1 27 -1 30.2
13:55 1016 30 846 24.98 18.5 65.3 27 -0.7 30.7
14:00 1016 30 846 24.98 18.7 65.6 27 -0.6 31
14:05 1016 30 846 24.98 18.8 65.8 27 -0.5 31.1
14:10 1016 30 846 24.98 18.7 65.6 27 -0.6 31
14:15 1016 30 846 24.98 18.8 65.9 28 0.3 32.6
14:20 1016 30 845 24.95 18.9 66.1 27 -0.3 31.4
14:25 1016 30 846 24.98 18.4 65.1 27 -0.6 30.9
14:30 1016 30 846 24.98 18.7 65.6 30 0.7 33.3
14:35 1016 30 845 24.95 18.8 65.9 30 0.9 33.6
14:40 1016 30 845 24.95 19.6 67.2 26 -0.2 31.7
14:45 1016 30 845 24.95 19.6 67.4 27 0.4 32.7
14:50 1016 30 845 24.95 19.6 67.3 26 -0.5 31.1
14:55 1016 30 845 24.95 20.1 68.3 26 -0.1 31.9
15:00 1016 30 845 24.95 19.4 66.9 24 -1.5 29.2
15:05 1016 30 845 24.95 19 66.1 26 -1 30.3
15:10 1016 30 845 24.95 18.6 65.4 27 -0.9 30.5
15:15 1016 30 845 24.95 18.5 65.3 25 -1.6 29.2
15:20 1016 30 845 24.95 18.5 65.4 25 -1.6 29.1
15:25 1016 30 845 24.95 18.5 65.2 25 -1.8 28.8
15:30 1016 30 845 24.95 18.6 65.5 26 -1.1 30
15:35 1016 30 845 24.95 18.7 65.7 25 -1.6 29.1
15:40 1016 30 845 24.95 18.6 65.5 26 -1 30.3
15:45 1016 30 845 24.95 18.5 65.3 26 -1.2 29.8
15:50 1016 30 845 24.95 18.5 65.2 25 -1.7 28.9
15:55 1016 30 845 24.95 18.5 65.2 27 -1 30.3
16:00 1016 30 845 24.95 18.5 65.3 28 -0.4 31.2
16:05 1016 30 845 24.95 18.4 65.1 29 -0.1 31.9
16:10 1016 30 845 24.95 18.3 64.9 26 -1.3 29.6
16:15 1016 30 845 24.95 18.2 64.8 28 -0.4 31.3
16:20 1016 30 845 24.95 18.2 64.8 28 -0.5 31.1
16:25 1016 30 845 24.95 18 64.5 28 -0.4 31.3
16:30 1016 30 845 24.95 17.8 64 29 -0.5 31.1
16:35 1016 30 845 24.95 17.6 63.7 28 -0.9 30.4
16:40 1016 30 845 24.95 17.8 64.1 29 -0.2 31.7
16:45 1016 30 845 24.95 17.8 64 29 -0.2 31.6
16:50 1016 30 845 24.95 18 64.3 28 -0.8 30.6
16:55 1016 30 845 24.95 18.2 64.8 28 -0.3 31.5
17:00 1016 30 845 24.95 18.2 64.8 28 -0.6 31
17:05 1016 30 845 24.95 18.2 64.7 28 -0.4 31.4
17:10 1016 30 845 24.95 18.2 64.8 28 -0.3 31.5
17:15 1016 30 845 24.95 18.3 64.9 28 -0.4 31.2
17:20 1016 30 845 24.95 18.3 64.9 30 0.4 32.7
17:25 1016 30 845 24.95 18.6 65.4 30 0.6 33.1
17:30 1016 30 845 24.95 18.1 64.7 30 0.3 32.6
17:35 1016 30 845 24.95 18.3 65 30 0.6 33.1
17:40 1016 30 845 24.95 18.7 65.7 29 0.6 33
17:45 1016 30 845 24.95 18.7 65.7 28 0 32.1
17:50 1016 30 845 24.95 18.6 65.4 30 0.8 33.5
17:55 1016 30 845 24.95 18.4 65.1 30 0.5 32.9
18:00 1016 30 845 24.95 18.4 65 28 -0.2 31.7
18:05 1016 30 845 24.95 18.4 65.1 29 0 32.1
18:10 1016 30 845 24.95 18.3 64.9 29 0.2 32.4
18:15 1016 30 845 24.95 18.2 64.7 28 -0.4 31.2
18:20 1016 30 845 24.95 18.3 65 27 -0.9 30.4
18:25 1016 30 845 24.95 18.2 64.8 28 -0.3 31.5
18:30 1016 30 845 24.95 18.2 64.8 29 0.2 32.3
18:35 1016 30 845 24.95 18.4 65 29 0.3 32.5
18:40 1016 30 845 24.95 18.4 65.1 29 0.3 32.6
18:45 1016 30 845 24.95 18.4 65 31 0.9 33.6
18:50 1016 30 845 24.95 18.1 64.5 31 0.8 33.5
18:55 1016 30 845 24.95 17.8 64 29 -0.2 31.6
19:00 1016 30 845 24.95 18.1 64.6 29 -0.2 31.7
19:05 1016 30 845 24.95 18.6 65.4 29 0.3 32.5
19:10 1016 30 845 24.95 18.5 65.3 32 1.8 35.3
19:15 1016 30 846 24.98 17.9 64.2 35 2.2 36
19:20 1016 30 846 24.98 17.7 63.9 36 2.5 36.5
19:25 1016 30 845 24.95 17.5 63.5 33 1.3 34.3
19:30 1016 30 845 24.95 17.3 63.1 34 1.3 34.3
19:35 1016 30 845 24.95 17.4 63.4 32 0.9 33.6
19:40 1016 30 845 24.95 17.4 63.3 35 1.8 35.3
19:45 1016 30 845 24.95 17.5 63.5 32 0.9 33.7
19:50 1016 30 845 24.95 17.5 63.4 30 -0 32
19:55 1016 30 845 24.95 17.6 63.6 35 1.9 35.5
20:00 1016 30 845 24.95 17.5 63.6 34 1.7 35
20:05 1016 30 846 24.98 17.6 63.8 36 2.3 36.2
20:10 1016 30 846 24.98 17.7 63.9 31 0.3 32.6
20:15 1016 30 846 24.98 17.8 64.1 32 1.1 34
20:20 1016 30 846 24.98 17.7 63.9 32 0.9 33.6
20:25 1016 30 846 24.98 17.5 63.6 34 1.7 35.1
20:30 1016 30 846 24.98 17.5 63.4 32 0.7 33.3
20:35 1017 30.03 846 24.98 17.4 63.4 34 1.7 35.1
20:40 1017 30.03 846 24.98 17.1 62.7 38 2.7 36.9
20:45 1017 30.03 846 24.98 16.8 62.2 42 4 39.2
20:50 1017 30.03 846 24.98 16.7 62.1 39 2.7 36.9
20:55 1017 30.03 846 24.98 16.8 62.2 43 4.3 39.8
21:00 1017 30.03 846 24.98 16.6 61.8 44 4.4 39.9
21:05 1017 30.03 846 24.98 16.1 61 43 3.7 38.7
21:10 1017 30.03 846 24.98 16 60.8 41 3 37.4
21:15 1017 30.03 846 24.98 16 60.9 39 2.4 36.3
21:20 1017 30.03 846 24.98 16.1 60.9 38 1.8 35.3
21:25 1017 30.03 846 24.98 16.1 60.9 38 1.9 35.4
21:30 1017 30.03 846 24.98 16 60.8 38 1.9 35.4
21:35 1017 30.03 847 25.01 15.4 59.8 47 4.3 39.8
21:40 1017 30.03 847 25.01 14.2 57.6 55 5.3 41.5
21:45 1017 30.03 847 25.01 13.5 56.3 57 5.1 41.2
21:50 1018 30.06 847 25.01 13.3 55.9 57 5 41
21:55 1018 30.06 847 25.01 13.3 55.9 56 4.9 40.8
22:00 1018 30.06 847 25.01 13.4 56.2 55 4.6 40.2
22:05 1018 30.06 847 25.01 13.6 56.6 55 4.9 40.8
22:10 1018 30.06 847 25.01 13.5 56.3 57 5.2 41.4
22:15 1018 30.06 847 25.01 12.8 55 59 5 41
22:20 1018 30.06 847 25.01 12.4 54.4 59 4.7 40.4
22:25 1018 30.06 847 25.01 12.4 54.4 57 4.3 39.8
22:30 1018 30.06 847 25.01 12.5 54.5 57 4.4 39.9
22:35 1018 30.06 847 25.01 12.6 54.6 58 4.6 40.2
22:40 1018 30.06 847 25.01 12.3 54.2 57 4 39.2
22:45 1018 30.06 847 25.01 12.2 54 55 3.6 38.4
22:50 1018 30.06 848 25.04 12.3 54.2 55 3.6 38.5
22:55 1018 30.06 848 25.04 12.3 54.2 55 3.7 38.7
23:00 1018 30.06 848 25.04 12.4 54.3 55 3.7 38.7
23:05 1018 30.06 848 25.04 12.2 53.9 57 3.9 39
23:10 1018 30.06 848 25.04 12 53.6 58 4.1 39.4
23:15 1018 30.06 848 25.04 11.7 53.1 60 4.3 39.8
23:20 1019 30.09 848 25.04 11.4 52.5 61 4.2 39.6
23:25 1019 30.09 848 25.04 11 51.9 62 4.1 39.3
23:30 1019 30.09 848 25.04 10.8 51.5 63 4.1 39.4
23:35 1019 30.09 848 25.04 10.7 51.3 63 4.1 39.4
23:40 1019 30.09 848 25.04 10.6 51.1 63 3.9 39
23:45 1019 30.09 848 25.04 10.5 50.9 62 3.6 38.4
23:50 1019 30.09 848 25.04 10.4 50.8 62 3.6 38.5
23:55 1019 30.09 848 25.04 10.4 50.6 63 3.7 38.7
24:00 1019 30.09 848 25.04 10 49.9 68 4.3 39.8